Brownsville, Wisconsin
Current Conditions -  °F | °C
As of 4:53 PM on Tuesday 21 Oct 2014 (Local Time) from KFLD Reporting Station
Clear Clear  
Wind Chill: 45°   Ceiling: Unl
Heat Index: 49°   Visibility: 10mi
Dew Point: 35°   Wind: 9mph
Humidity: 59%   Direction: 10°N
Pressure: 30.23"   Gusts: NA
Location:  43.62°N, 88.49°W
Report Text: KFLD 212153Z AUTO 01008KT 10SM CLR 09/02 A3023 RMK AO2 SLP243 T00940017
Loading
Personal Weather Stations






























Interactive Weather Map
Tropical Storm Tracking
New forecast layout! Learn more

10-Day Weather Forecast

Advertisements
Track Severe Weather on mobile